createdAt,value
2023-03-07T00:01:21.905Z,99163.09
2023-03-07T00:03:50.561Z,99159.25
2023-03-07T00:06:20.424Z,99169.78
2023-03-07T00:08:51.538Z,99163.50
2023-03-07T00:11:20.263Z,99166.13
2023-03-07T00:13:48.844Z,99155.66
2023-03-07T00:16:18.833Z,99158.06
2023-03-07T00:18:47.255Z,99152.38
2023-03-07T00:21:17.639Z,99143.09
2023-03-07T00:23:49.012Z,99142.66
2023-03-07T00:26:18.557Z,99145.06
2023-03-07T00:28:49.168Z,99143.47
2023-03-07T00:31:18.086Z,99148.28
2023-03-07T00:33:46.101Z,99139.38
2023-03-07T00:36:16.372Z,99136.13
2023-03-07T00:38:44.472Z,99127.66
2023-03-07T00:41:15.639Z,99126.88
2023-03-07T00:43:46.196Z,99131.09
2023-03-07T00:46:14.578Z,99134.16
2023-03-07T00:48:42.788Z,99126.41
2023-03-07T00:51:14.352Z,99120.41
2023-03-07T00:53:43.231Z,99113.91
2023-03-07T00:56:16.912Z,99115.88
2023-03-07T00:58:45.278Z,99124.72
2023-03-07T01:01:15.217Z,99105.84
2023-03-07T01:03:44.433Z,99108.31
2023-03-07T01:06:15.973Z,99103.88
2023-03-07T01:08:47.026Z,99114.41
2023-03-07T01:11:16.466Z,99104.09
2023-03-07T01:13:44.708Z,99110.81
2023-03-07T01:16:16.038Z,99106.16
2023-03-07T01:18:45.406Z,99099.47
2023-03-07T01:21:16.720Z,99107.75
2023-03-07T01:23:45.283Z,99100.28
2023-03-07T01:26:17.772Z,99095.25
2023-03-07T01:28:46.362Z,99086.09
2023-03-07T01:31:14.891Z,99076.75
2023-03-07T01:33:43.632Z,99086.63
2023-03-07T01:36:20.038Z,99080.91
2023-03-07T01:38:49.575Z,99070.00
2023-03-07T01:41:19.153Z,99074.03
2023-03-07T01:43:47.346Z,99081.13
2023-03-07T01:46:43.145Z,99065.91
2023-03-07T01:49:16.974Z,99069.28
2023-03-07T01:51:49.676Z,99057.53
2023-03-07T01:54:20.628Z,99049.69
2023-03-07T01:56:50.591Z,99056.53
2023-03-07T01:59:24.814Z,99053.91
2023-03-07T02:01:54.136Z,99043.38
2023-03-07T02:04:28.538Z,99039.44
2023-03-07T02:06:56.796Z,99036.81
2023-03-07T02:09:28.106Z,99031.72
2023-03-07T02:11:58.714Z,99031.72
2023-03-07T02:14:26.999Z,99024.81
2023-03-07T02:16:55.458Z,99015.09
2023-03-07T02:19:47.230Z,99017.06
2023-03-07T02:22:18.463Z,99015.31
2023-03-07T02:24:52.470Z,99013.50
2023-03-07T02:27:23.524Z,99015.94
2023-03-07T02:29:51.744Z,99011.91
2023-03-07T02:32:20.469Z,99013.16
2023-03-07T02:34:48.626Z,99008.09
2023-03-07T02:37:20.877Z,98996.09
2023-03-07T02:39:49.536Z,99000.34
2023-03-07T02:42:22.338Z,98997.38
2023-03-07T02:44:58.305Z,98996.50
2023-03-07T02:47:26.758Z,98996.50
2023-03-07T02:49:54.635Z,98993.91
2023-03-07T02:52:22.894Z,98983.81
2023-03-07T02:54:51.073Z,98993.53
2023-03-07T02:57:19.863Z,98984.88
2023-03-07T02:59:47.606Z,98980.00
2023-03-07T03:02:17.358Z,98985.63
2023-03-07T03:04:45.023Z,98980.38
2023-03-07T03:07:12.796Z,98976.72
2023-03-07T03:09:41.033Z,98987.66
2023-03-07T03:12:09.180Z,98977.31
2023-03-07T03:14:36.876Z,98978.78
2023-03-07T03:17:05.432Z,98972.44
2023-03-07T03:19:34.697Z,98975.88
2023-03-07T03:22:03.201Z,98972.66
2023-03-07T03:24:31.466Z,98975.13
2023-03-07T03:26:59.424Z,98972.91
2023-03-07T03:29:27.223Z,98975.53
2023-03-07T03:31:55.477Z,98967.81
2023-03-07T03:34:23.168Z,98968.81
2023-03-07T03:36:52.413Z,98974.50
2023-03-07T03:39:20.674Z,98964.59
2023-03-07T03:41:48.321Z,98962.16
2023-03-07T03:44:15.980Z,98962.56
2023-03-07T03:46:44.260Z,98951.63
2023-03-07T03:49:13.328Z,98946.19
2023-03-07T03:51:41.013Z,98954.44
2023-03-07T03:54:10.742Z,98952.44
2023-03-07T03:56:38.417Z,98945.91
2023-03-07T03:59:06.091Z,98946.97
2023-03-07T04:01:34.379Z,98936.47
2023-03-07T04:04:02.157Z,98937.88
2023-03-07T04:06:31.686Z,98935.03
2023-03-07T04:09:00.195Z,98933.41
2023-03-07T04:11:29.239Z,98930.22
2023-03-07T04:13:57.153Z,98926.34
2023-03-07T04:16:25.491Z,98926.34
2023-03-07T04:18:53.458Z,98928.28
2023-03-07T04:21:22.170Z,98923.72
2023-03-07T04:23:55.893Z,98923.25
2023-03-07T04:26:24.115Z,98919.25
2023-03-07T04:28:53.252Z,98920.84
2023-03-07T04:31:23.735Z,98911.56
2023-03-07T04:33:52.809Z,98912.59
2023-03-07T04:36:20.998Z,98909.09
2023-03-07T04:38:50.139Z,98910.56
2023-03-07T04:41:20.307Z,98910.97
2023-03-07T04:43:48.286Z,98902.69
2023-03-07T04:46:19.467Z,98898.25
2023-03-07T04:48:47.793Z,98901.66
2023-03-07T04:51:15.898Z,98900.06
2023-03-07T04:53:44.607Z,98894.47
2023-03-07T04:56:13.984Z,98897.38
2023-03-07T04:58:42.153Z,98887.44
2023-03-07T05:01:10.351Z,98890.19
2023-03-07T05:03:39.402Z,98890.56
2023-03-07T05:06:09.484Z,98886.13
2023-03-07T05:08:37.796Z,98885.19
2023-03-07T05:11:05.761Z,98883.81
2023-03-07T05:13:33.436Z,98890.19
2023-03-07T05:16:01.608Z,98887.56
2023-03-07T05:18:29.718Z,98880.34
2023-03-07T05:20:58.757Z,98885.19
2023-03-07T05:23:28.269Z,98890.88
2023-03-07T05:25:55.923Z,98904.84
2023-03-07T05:28:23.609Z,98901.19
2023-03-07T05:30:51.781Z,98902.22
2023-03-07T05:33:20.056Z,98902.22
2023-03-07T05:35:48.189Z,98884.22
2023-03-07T05:38:17.795Z,98883.06
2023-03-07T05:40:45.474Z,98885.47
2023-03-07T05:43:13.165Z,98889.91
2023-03-07T05:45:41.660Z,98881.44
2023-03-07T05:48:09.320Z,98876.63
2023-03-07T05:50:38.383Z,98879.72
2023-03-07T05:53:06.934Z,98865.91
2023-03-07T05:55:35.935Z,98868.25
2023-03-07T05:58:03.657Z,98867.13
2023-03-07T06:00:32.257Z,98859.81
2023-03-07T06:03:02.282Z,98856.09
2023-03-07T06:05:30.098Z,98853.19
2023-03-07T06:07:58.601Z,98860.56
2023-03-07T06:10:26.782Z,98854.50
2023-03-07T06:12:56.100Z,98856.03
2023-03-07T06:15:25.067Z,98855.75
2023-03-07T06:17:53.556Z,98852.91
2023-03-07T06:20:21.796Z,98846.19
2023-03-07T06:22:50.092Z,98853.28
2023-03-07T06:25:21.552Z,98847.41
2023-03-07T06:27:49.421Z,98846.75
2023-03-07T06:30:19.419Z,98845.53
2023-03-07T06:32:47.066Z,98851.94
2023-03-07T06:35:14.741Z,98854.78
2023-03-07T06:37:42.907Z,98848.66
2023-03-07T06:40:12.387Z,98842.00
2023-03-07T06:42:40.357Z,98857.00
2023-03-07T06:45:09.812Z,98857.19
2023-03-07T06:47:38.955Z,98864.09
2023-03-07T06:50:07.792Z,98867.44
2023-03-07T06:52:35.987Z,98865.97
2023-03-07T06:55:03.795Z,98874.94
2023-03-07T06:57:33.884Z,98863.56
2023-03-07T07:00:02.130Z,98861.28
2023-03-07T07:02:30.191Z,98861.66
2023-03-07T07:05:01.250Z,98873.56
2023-03-07T07:07:29.613Z,98865.06
2023-03-07T07:09:57.293Z,98861.81
2023-03-07T07:12:24.948Z,98862.22
2023-03-07T07:14:53.445Z,98864.66
2023-03-07T07:17:21.219Z,98864.38
2023-03-07T07:19:49.155Z,98862.91
2023-03-07T07:22:18.860Z,98868.16
2023-03-07T07:24:46.363Z,98869.75
2023-03-07T07:27:14.330Z,98863.63
2023-03-07T07:29:42.646Z,98870.13
2023-03-07T07:32:10.478Z,98865.91
2023-03-07T07:34:38.427Z,98857.78
2023-03-07T07:37:06.655Z,98867.28
2023-03-07T07:39:35.726Z,98861.56
2023-03-07T07:42:03.397Z,98866.28
2023-03-07T07:44:32.168Z,98873.56
2023-03-07T07:46:59.845Z,98881.25
2023-03-07T07:49:27.794Z,98877.94
2023-03-07T07:51:55.846Z,98871.31
2023-03-07T07:54:23.948Z,98874.72
2023-03-07T07:56:53.459Z,98876.34
2023-03-07T07:59:21.781Z,98871.22
2023-03-07T08:01:50.056Z,98883.00
2023-03-07T08:04:17.799Z,98875.66
2023-03-07T08:06:46.693Z,98872.53
2023-03-07T08:09:14.924Z,98881.25
2023-03-07T08:11:43.061Z,98878.69
2023-03-07T08:14:13.273Z,98878.25
2023-03-07T08:16:41.429Z,98883.66
2023-03-07T08:19:10.354Z,98879.75
2023-03-07T08:21:38.741Z,98880.38
2023-03-07T08:24:07.351Z,98870.63
2023-03-07T08:26:35.742Z,98882.75
2023-03-07T08:29:04.298Z,98861.72
2023-03-07T08:31:33.875Z,98859.88
2023-03-07T08:34:01.726Z,98860.53
2023-03-07T08:36:30.549Z,98867.22
2023-03-07T08:38:58.721Z,98862.28
2023-03-07T08:41:26.616Z,98870.88
2023-03-07T08:43:55.505Z,98861.47
2023-03-07T08:46:23.700Z,98860.69
2023-03-07T08:48:53.827Z,98859.66
2023-03-07T08:51:22.604Z,98857.38
2023-03-07T08:53:50.709Z,98860.69
2023-03-07T08:56:20.079Z,98869.31
2023-03-07T08:58:48.774Z,98855.69
2023-03-07T09:01:16.744Z,98856.06
2023-03-07T09:03:44.954Z,98853.19
2023-03-07T09:06:19.888Z,98857.78
2023-03-07T09:08:48.538Z,98855.16
2023-03-07T09:11:17.568Z,98859.75
2023-03-07T09:13:52.472Z,98864.44
2023-03-07T09:16:22.095Z,98862.38
2023-03-07T09:18:50.694Z,98858.72
2023-03-07T09:21:20.087Z,98860.53
2023-03-07T09:23:47.982Z,98850.03
2023-03-07T09:26:16.768Z,98845.78
2023-03-07T09:28:44.785Z,98858.84
2023-03-07T09:31:14.613Z,98863.53
2023-03-07T09:33:46.536Z,98854.63
2023-03-07T09:36:16.504Z,98866.88
2023-03-07T09:38:46.250Z,98863.81
2023-03-07T09:41:30.415Z,98859.03
2023-03-07T09:44:10.150Z,98864.84
2023-03-07T09:46:49.200Z,98854.75
2023-03-07T09:49:22.169Z,98861.06
2023-03-07T09:51:52.981Z,98852.59
2023-03-07T09:54:27.656Z,98858.66
2023-03-07T09:56:58.246Z,98850.75
2023-03-07T09:59:35.451Z,98864.50
2023-03-07T10:02:13.793Z,98853.97
2023-03-07T10:04:48.650Z,98851.69
2023-03-07T10:07:18.269Z,98852.50
2023-03-07T10:09:47.878Z,98846.78
2023-03-07T10:12:52.487Z,98842.31
2023-03-07T10:15:32.837Z,98838.97
2023-03-07T10:18:17.999Z,98845.06
2023-03-07T10:20:50.506Z,98848.69
2023-03-07T10:23:31.568Z,98838.53
2023-03-07T10:26:10.483Z,98844.47
2023-03-07T10:28:42.762Z,98845.06
2023-03-07T10:31:25.456Z,98836.13
2023-03-07T10:33:56.150Z,98847.81
2023-03-07T10:36:34.321Z,98841.50
2023-03-07T10:39:08.105Z,98832.59
2023-03-07T10:41:37.441Z,98836.81
2023-03-07T10:44:05.662Z,98838.09
2023-03-07T10:46:38.015Z,98835.56
2023-03-07T10:49:11.769Z,98843.69
2023-03-07T10:51:52.383Z,98831.91
2023-03-07T10:54:23.483Z,98831.22
2023-03-07T10:57:08.083Z,98835.47
2023-03-07T10:59:37.151Z,98831.78
2023-03-07T11:02:30.708Z,98840.03
2023-03-07T11:05:00.333Z,98841.28
2023-03-07T11:07:31.632Z,98838.22
2023-03-07T11:10:01.122Z,98835.13
2023-03-07T11:12:32.713Z,98829.28
2023-03-07T11:15:12.255Z,98834.09
2023-03-07T11:17:44.259Z,98835.69
2023-03-07T11:20:22.022Z,98831.91
2023-03-07T11:22:51.117Z,98831.69
2023-03-07T11:25:22.897Z,98835.25
2023-03-07T11:27:55.327Z,98833.19
2023-03-07T11:30:26.520Z,98842.69
2023-03-07T11:33:02.074Z,98835.25
2023-03-07T11:35:44.176Z,98841.88
2023-03-07T11:38:19.348Z,98837.41
2023-03-07T11:40:55.998Z,98837.41
2023-03-07T11:43:44.106Z,98824.59
2023-03-07T11:46:18.343Z,98838.22
2023-03-07T11:48:58.159Z,98837.22
2023-03-07T11:51:42.296Z,98843.28
2023-03-07T11:54:22.795Z,98835.13
2023-03-07T11:56:54.121Z,98844.88
2023-03-07T11:59:53.928Z,98839.97
2023-03-07T12:02:39.413Z,98839.72
2023-03-07T12:05:21.214Z,98842.59
2023-03-07T12:08:05.149Z,98842.13
2023-03-07T12:10:47.632Z,98841.91
2023-03-07T12:13:31.208Z,98845.34
2023-03-07T12:16:11.927Z,98845.56
2023-03-07T12:19:06.717Z,98831.38
2023-03-07T12:21:53.061Z,98821.84
2023-03-07T12:24:25.107Z,98822.44
2023-03-07T12:27:00.816Z,98825.50
2023-03-07T12:29:37.172Z,98821.50
2023-03-07T12:32:13.495Z,98827.09
2023-03-07T12:34:47.315Z,98823.91
2023-03-07T12:37:19.583Z,98833.41
2023-03-07T12:39:52.991Z,98834.81
2023-03-07T12:42:32.685Z,98832.38
2023-03-07T12:45:03.202Z,98837.75
2023-03-07T12:47:45.057Z,98836.41
2023-03-07T12:50:20.031Z,98830.53
2023-03-07T12:52:52.415Z,98835.50
2023-03-07T12:55:27.025Z,98838.81
2023-03-07T12:58:04.715Z,98836.06
2023-03-07T13:00:36.688Z,98839.72
2023-03-07T13:03:07.412Z,98844.16
2023-03-07T13:05:37.966Z,98843.59
2023-03-07T13:08:09.308Z,98843.84
2023-03-07T13:10:37.693Z,98840.59
2023-03-07T13:13:44.209Z,98842.44
2023-03-07T13:16:14.158Z,98841.41
2023-03-07T13:18:43.249Z,98852.97
2023-03-07T13:21:31.158Z,98844.88
2023-03-07T13:24:36.709Z,98858.03
2023-03-07T13:27:06.372Z,98858.47
2023-03-07T13:29:52.511Z,98855.16
2023-03-07T13:33:00.174Z,98856.41
2023-03-07T13:35:57.647Z,98871.28
2023-03-07T13:38:34.623Z,98865.00
2023-03-07T13:41:03.604Z,98868.09
2023-03-07T13:44:00.539Z,98858.38
2023-03-07T13:46:32.246Z,98863.41
2023-03-07T13:49:02.646Z,98861.78
2023-03-07T13:51:31.770Z,98871.28
2023-03-07T13:54:04.075Z,98858.72
2023-03-07T13:56:37.375Z,98853.66
2023-03-07T13:59:16.390Z,98861.34
2023-03-07T14:01:46.770Z,98854.00
2023-03-07T14:04:26.738Z,98864.56
2023-03-07T14:07:12.984Z,98860.88
2023-03-07T14:09:43.841Z,98863.50
2023-03-07T14:12:22.503Z,98866.50
2023-03-07T14:15:06.548Z,98861.25
2023-03-07T14:17:53.869Z,98872.81
2023-03-07T14:20:29.447Z,98880.72
2023-03-07T14:23:14.970Z,98879.31
2023-03-07T14:25:44.655Z,98886.41
2023-03-07T14:28:22.126Z,98888.38
2023-03-07T14:30:59.374Z,98891.00
2023-03-07T14:33:31.703Z,98897.56
2023-03-07T14:36:00.146Z,98904.63
2023-03-07T14:38:29.453Z,98902.59
2023-03-07T14:41:12.219Z,98891.25
2023-03-07T14:43:52.279Z,98900.53
2023-03-07T14:46:30.699Z,98891.56
2023-03-07T14:49:11.485Z,98896.66
2023-03-07T14:51:45.241Z,98895.59
2023-03-07T14:54:18.534Z,98904.88
2023-03-07T14:56:48.135Z,98904.31
2023-03-07T14:59:27.776Z,98901.81
2023-03-07T15:01:57.204Z,98901.00
2023-03-07T15:04:28.046Z,98902.84
2023-03-07T15:06:58.880Z,98908.34
2023-03-07T15:09:29.806Z,98905.34
2023-03-07T15:12:03.615Z,98912.22
2023-03-07T15:14:39.943Z,98904.75
2023-03-07T15:17:15.230Z,98911.66
2023-03-07T15:19:48.097Z,98912.44
2023-03-07T15:22:24.929Z,98911.19
2023-03-07T15:24:54.907Z,98910.63
2023-03-07T15:27:26.882Z,98912.66
2023-03-07T15:29:56.244Z,98914.16
2023-03-07T15:32:35.580Z,98920.91
2023-03-07T15:35:12.878Z,98923.84
2023-03-07T15:37:53.820Z,98926.16
2023-03-07T15:40:30.698Z,98925.56
2023-03-07T15:43:02.738Z,98931.72
2023-03-07T15:45:33.446Z,98932.25
2023-03-07T15:48:03.906Z,98944.03
2023-03-07T15:50:31.907Z,98946.75
2023-03-07T15:53:07.680Z,98947.78
2023-03-07T15:55:39.423Z,98949.84
2023-03-07T15:58:15.147Z,98954.38
2023-03-07T16:00:43.734Z,98956.28
2023-03-07T16:03:26.091Z,98954.22
2023-03-07T16:05:54.610Z,98958.91
2023-03-07T16:08:22.595Z,98960.97
2023-03-07T16:10:57.427Z,98961.75
2023-03-07T16:13:30.222Z,98963.25
2023-03-07T16:18:57.316Z,98971.94
2023-03-07T16:21:25.536Z,98963.00
2023-03-07T16:23:53.726Z,98968.28
2023-03-07T16:26:25.049Z,98966.69
2023-03-07T16:28:54.309Z,98972.13
2023-03-07T16:31:22.326Z,98971.94
2023-03-07T16:33:50.209Z,98982.47
2023-03-07T16:36:20.457Z,98990.00
2023-03-07T16:38:48.617Z,98995.19
2023-03-07T16:41:18.516Z,98997.97
2023-03-07T16:43:53.612Z,98988.66
2023-03-07T16:46:22.064Z,98992.97
2023-03-07T16:48:50.122Z,98994.00
2023-03-07T16:51:21.605Z,99004.53
2023-03-07T16:53:51.364Z,99011.81
2023-03-07T16:56:26.657Z,99011.00
2023-03-07T16:58:56.406Z,99007.81
2023-03-07T17:01:24.395Z,99016.72
2023-03-07T17:03:53.053Z,99008.03
2023-03-07T17:06:25.461Z,99016.72
2023-03-07T17:08:59.189Z,99008.63
2023-03-07T17:11:29.721Z,99007.81
2023-03-07T17:14:01.365Z,99011.81
2023-03-07T17:16:29.848Z,99013.66
2023-03-07T17:18:58.442Z,99013.06
2023-03-07T17:21:26.978Z,99023.59
2023-03-07T17:23:54.660Z,99023.38
2023-03-07T17:26:28.728Z,99034.69
2023-03-07T17:29:01.192Z,99024.41
2023-03-07T17:31:29.735Z,99029.88
2023-03-07T17:33:57.497Z,99039.59
2023-03-07T17:36:25.211Z,99039.81
2023-03-07T17:38:53.840Z,99048.94
2023-03-07T17:41:21.765Z,99051.56
2023-03-07T17:43:49.690Z,99045.50
2023-03-07T17:46:19.599Z,99056.03
2023-03-07T17:48:47.575Z,99065.75
2023-03-07T17:51:15.449Z,99063.34
2023-03-07T17:53:43.764Z,99066.56
2023-03-07T17:56:13.576Z,99064.97
2023-03-07T17:58:41.689Z,99067.00
2023-03-07T18:01:11.819Z,99086.22
2023-03-07T18:03:41.210Z,99082.97
2023-03-07T18:06:10.168Z,99081.38
2023-03-07T18:08:39.225Z,99084.81
2023-03-07T18:11:09.374Z,99095.31
2023-03-07T18:13:38.811Z,99097.97
2023-03-07T18:16:08.448Z,99102.88
2023-03-07T18:18:38.251Z,99108.31
2023-03-07T18:21:10.603Z,99111.97
2023-03-07T18:23:38.567Z,99109.19
2023-03-07T18:26:08.289Z,99115.22
2023-03-07T18:28:37.706Z,99110.19
2023-03-07T18:31:07.779Z,99115.47
2023-03-07T18:33:37.872Z,99116.69
2023-03-07T18:36:10.095Z,99125.38
2023-03-07T18:38:38.824Z,99125.00
2023-03-07T18:41:08.792Z,99142.38
2023-03-07T18:43:37.528Z,99142.59
2023-03-07T18:46:06.056Z,99133.69
2023-03-07T18:48:34.221Z,99144.22
2023-03-07T18:51:03.689Z,99137.94
2023-03-07T18:53:34.905Z,99144.00
2023-03-07T18:56:04.880Z,99143.25
2023-03-07T18:58:33.547Z,99147.47
2023-03-07T19:01:11.353Z,99151.94
2023-03-07T19:03:39.469Z,99152.56
2023-03-07T19:06:08.242Z,99153.38
2023-03-07T19:08:38.413Z,99151.31
2023-03-07T19:11:07.880Z,99158.63
2023-03-07T19:13:36.428Z,99163.88
2023-03-07T19:16:07.089Z,99158.63
2023-03-07T19:18:36.431Z,99168.34
2023-03-07T19:21:06.609Z,99169.34
2023-03-07T19:23:35.210Z,99163.13
2023-03-07T19:26:06.118Z,99161.47
2023-03-07T19:28:35.655Z,99166.16
2023-03-07T19:31:08.895Z,99165.13
2023-03-07T19:33:38.515Z,99165.13
2023-03-07T19:36:07.734Z,99165.34
2023-03-07T19:38:35.976Z,99171.19
2023-03-07T19:41:07.152Z,99172.84
2023-03-07T19:43:35.372Z,99174.25
2023-03-07T19:46:06.497Z,99170.84
2023-03-07T19:48:35.290Z,99172.66
2023-03-07T19:51:04.036Z,99173.88
2023-03-07T19:53:32.405Z,99185.81
2023-03-07T19:56:12.337Z,99178.09
2023-03-07T19:58:40.759Z,99184.56
2023-03-07T20:01:10.345Z,99187.19
2023-03-07T20:03:38.942Z,99186.56
2023-03-07T20:06:09.150Z,99183.72
2023-03-07T20:08:37.447Z,99178.69
2023-03-07T20:11:12.545Z,99179.25
2023-03-07T20:13:41.277Z,99173.63
2023-03-07T20:16:10.686Z,99176.84
2023-03-07T20:18:39.969Z,99175.81
2023-03-07T20:21:09.958Z,99180.69
2023-03-07T20:23:38.996Z,99181.47
2023-03-07T20:26:09.381Z,99181.47
2023-03-07T20:28:39.533Z,99178.63
2023-03-07T20:31:10.212Z,99187.13
2023-03-07T20:33:40.081Z,99184.69
2023-03-07T20:36:10.833Z,99182.88
2023-03-07T20:38:39.304Z,99183.69
2023-03-07T20:41:09.648Z,99192.97
2023-03-07T20:43:39.451Z,99188.97
2023-03-07T20:46:12.521Z,99180.22
2023-03-07T20:48:41.887Z,99182.69
2023-03-07T20:51:16.150Z,99188.97
2023-03-07T20:53:45.002Z,99193.38
2023-03-07T20:56:13.422Z,99194.22
2023-03-07T20:58:44.006Z,99204.72
2023-03-07T21:01:13.322Z,99200.69
2023-03-07T21:03:41.446Z,99201.09
2023-03-07T21:06:09.709Z,99192.84
2023-03-07T21:08:38.662Z,99195.06
2023-03-07T21:11:08.251Z,99195.69
2023-03-07T21:13:37.184Z,99191.84
2023-03-07T21:16:10.876Z,99186.78
2023-03-07T21:18:39.781Z,99197.94
2023-03-07T21:21:10.257Z,99203.41
2023-03-07T21:23:38.502Z,99191.50
2023-03-07T21:26:08.512Z,99192.31
2023-03-07T21:28:38.262Z,99200.38
2023-03-07T21:31:09.173Z,99195.56
2023-03-07T21:33:37.450Z,99200.00
2023-03-07T21:36:06.833Z,99200.19
2023-03-07T21:38:35.422Z,99200.19
2023-03-07T21:41:04.014Z,99200.63
2023-03-07T21:43:32.978Z,99196.97
2023-03-07T21:46:04.742Z,99206.25
2023-03-07T21:48:35.675Z,99190.72
2023-03-07T21:51:04.846Z,99195.97
2023-03-07T21:53:33.758Z,99192.31
2023-03-07T21:56:04.418Z,99198.19
2023-03-07T21:58:33.364Z,99202.63
2023-03-07T22:01:01.427Z,99193.94
2023-03-07T22:03:30.389Z,99193.16
2023-03-07T22:06:00.117Z,99208.69
2023-03-07T22:08:27.893Z,99196.75
2023-03-07T22:11:00.594Z,99191.50
2023-03-07T22:13:28.981Z,99185.84
2023-03-07T22:15:57.853Z,99190.31
2023-03-07T22:18:26.693Z,99192.31
2023-03-07T22:20:55.385Z,99193.94
2023-03-07T22:23:27.766Z,99199.00
2023-03-07T22:25:55.747Z,99195.97
2023-03-07T22:28:23.739Z,99193.78
2023-03-07T22:30:52.589Z,99192.13
2023-03-07T22:33:20.686Z,99185.06
2023-03-07T22:35:57.288Z,99184.88
2023-03-07T22:38:26.922Z,99189.09
2023-03-07T22:40:54.642Z,99196.34
2023-03-07T22:43:22.997Z,99191.50
2023-03-07T22:45:52.442Z,99192.34
2023-03-07T22:48:20.581Z,99190.13
2023-03-07T22:50:49.249Z,99183.03
2023-03-07T22:53:17.394Z,99178.59
2023-03-07T22:55:47.232Z,99182.44
2023-03-07T22:58:16.085Z,99195.16
2023-03-07T23:00:45.255Z,99180.19
2023-03-07T23:03:13.710Z,99180.81
2023-03-07T23:05:42.616Z,99174.53
2023-03-07T23:08:11.473Z,99170.88
2023-03-07T23:10:39.731Z,99167.25
2023-03-07T23:13:09.924Z,99168.66
2023-03-07T23:15:40.845Z,99155.50
2023-03-07T23:18:09.019Z,99146.84
2023-03-07T23:20:39.470Z,99151.47
2023-03-07T23:23:08.109Z,99147.63
2023-03-07T23:25:41.943Z,99149.25
2023-03-07T23:28:11.805Z,99135.28
2023-03-07T23:30:40.842Z,99135.28
2023-03-07T23:33:09.952Z,99132.06
2023-03-07T23:35:38.329Z,99115.13
2023-03-07T23:38:07.085Z,99121.53
2023-03-07T23:40:37.692Z,99117.75
2023-03-07T23:43:06.397Z,99127.59
2023-03-07T23:45:37.067Z,99130.03
2023-03-07T23:48:06.000Z,99126.78
2023-03-07T23:50:34.659Z,99123.19
2023-03-07T23:53:03.308Z,99119.53
2023-03-07T23:55:31.774Z,99119.53
2023-03-07T23:58:00.039Z,99115.28
